createdAt,value
2023-02-01T00:01:14.464Z,0.50
2023-02-01T00:03:41.061Z,0.35
2023-02-01T00:06:07.498Z,0.50
2023-02-01T00:08:36.228Z,0.40
2023-02-01T00:11:04.230Z,0.30
2023-02-01T00:13:34.049Z,0.52
2023-02-01T00:16:06.463Z,0.30
2023-02-01T00:20:59.615Z,0.22
2023-02-01T00:23:26.277Z,0.40
2023-02-01T00:25:52.869Z,0.30
2023-02-01T00:28:19.390Z,0.50
2023-02-01T00:30:46.054Z,0.30
2023-02-01T00:33:12.499Z,0.30
2023-02-01T00:35:38.903Z,0.32
2023-02-01T00:38:05.411Z,0.30
2023-02-01T00:40:31.849Z,0.20
2023-02-01T00:42:58.867Z,0.30
2023-02-01T00:45:25.376Z,0.40
2023-02-01T00:47:51.782Z,0.45
2023-02-01T00:50:18.224Z,0.40
2023-02-01T00:52:44.645Z,0.50
2023-02-01T00:55:11.098Z,0.30
2023-02-01T00:57:37.479Z,0.30
2023-02-01T01:00:06.576Z,0.30
2023-02-01T01:02:32.958Z,0.22
2023-02-01T01:04:59.333Z,0.30
2023-02-01T01:07:25.767Z,0.40
2023-02-01T01:09:52.276Z,0.30
2023-02-01T01:12:20.840Z,0.30
2023-02-01T01:14:47.421Z,0.30
2023-02-01T01:17:14.057Z,0.30
2023-02-01T01:19:42.668Z,0.30
2023-02-01T01:22:09.110Z,0.35
2023-02-01T01:24:35.634Z,0.50
2023-02-01T01:27:04.570Z,0.20
2023-02-01T01:29:32.096Z,0.47
2023-02-01T01:31:58.545Z,0.30
2023-02-01T01:34:25.064Z,0.60
2023-02-01T01:36:51.532Z,0.32
2023-02-01T01:39:17.979Z,0.40
2023-02-01T01:41:44.397Z,0.50
2023-02-01T01:44:29.513Z,0.40
2023-02-01T01:46:55.968Z,0.50
2023-02-01T01:49:25.022Z,0.60
2023-02-01T01:51:51.388Z,0.43
2023-02-01T01:54:19.463Z,0.70
2023-02-01T01:56:48.193Z,0.63
2023-02-01T01:59:14.858Z,0.50
2023-02-01T02:01:41.361Z,0.40
2023-02-01T02:04:07.891Z,0.40
2023-02-01T02:06:59.051Z,0.40
2023-02-01T02:09:25.502Z,0.47
2023-02-01T02:11:51.902Z,0.40
2023-02-01T02:14:19.885Z,0.50
2023-02-01T02:17:00.531Z,0.50
2023-02-01T02:19:31.057Z,0.55
2023-02-01T02:22:11.008Z,0.30
2023-02-01T02:24:56.054Z,0.50
2023-02-01T02:27:41.223Z,0.30
2023-02-01T02:30:22.724Z,0.38
2023-02-01T02:33:06.932Z,0.30
2023-02-01T02:35:36.357Z,0.30
2023-02-01T02:38:21.545Z,0.30
2023-02-01T02:40:53.268Z,0.40
2023-02-01T02:43:38.572Z,0.20
2023-02-01T02:46:34.426Z,0.40
2023-02-01T02:49:05.786Z,0.32
2023-02-01T02:52:06.711Z,0.20
2023-02-01T02:54:46.985Z,0.50
2023-02-01T02:57:34.086Z,0.40
2023-02-01T03:00:20.757Z,0.40
2023-02-01T03:03:06.965Z,0.28
2023-02-01T03:05:34.905Z,0.30
2023-02-01T03:08:01.307Z,0.40
2023-02-01T03:10:42.682Z,0.30
2023-02-01T03:13:32.328Z,0.50
2023-02-01T03:16:02.528Z,0.43
2023-02-01T03:18:43.513Z,0.60
2023-02-01T03:21:12.499Z,0.35
2023-02-01T03:23:41.693Z,0.52
2023-02-01T03:26:11.513Z,0.50
2023-02-01T03:28:41.060Z,0.43
2023-02-01T03:31:07.729Z,0.50
2023-02-01T03:33:39.036Z,0.40
2023-02-01T03:36:05.549Z,0.40
2023-02-01T03:38:35.430Z,0.47
2023-02-01T03:41:20.697Z,0.52
2023-02-01T03:43:47.108Z,0.60
2023-02-01T03:46:16.432Z,0.63
2023-02-01T03:48:43.114Z,0.60
2023-02-01T03:51:10.473Z,0.60
2023-02-01T03:53:37.566Z,0.70
2023-02-01T03:56:04.241Z,0.60
2023-02-01T03:58:30.778Z,0.60
2023-02-01T04:00:58.957Z,0.40
2023-02-01T04:03:26.726Z,0.70
2023-02-01T04:05:53.634Z,0.70
2023-02-01T04:08:23.347Z,0.60
2023-02-01T04:10:50.060Z,0.60
2023-02-01T04:13:16.560Z,0.65
2023-02-01T04:15:43.070Z,0.55
2023-02-01T04:18:09.450Z,0.80
2023-02-01T04:20:35.859Z,0.40
2023-02-01T04:23:03.557Z,0.80
2023-02-01T04:25:31.010Z,0.63
2023-02-01T04:27:57.382Z,0.60
2023-02-01T04:30:25.142Z,0.43
2023-02-01T04:32:51.907Z,0.88
2023-02-01T04:35:18.851Z,0.80
2023-02-01T04:37:45.272Z,0.95
2023-02-01T04:40:12.119Z,0.77
2023-02-01T04:42:38.741Z,1.10
2023-02-01T04:45:05.463Z,0.77
2023-02-01T04:47:31.923Z,0.73
2023-02-01T04:49:58.393Z,0.70
2023-02-01T04:52:24.855Z,0.82
2023-02-01T04:54:51.370Z,1.00
2023-02-01T04:57:17.860Z,0.98
2023-02-01T04:59:44.307Z,0.90
2023-02-01T05:02:10.694Z,0.70
2023-02-01T05:04:37.160Z,1.20
2023-02-01T05:07:03.655Z,0.77
2023-02-01T05:09:30.077Z,0.70
2023-02-01T05:12:15.259Z,0.90
2023-02-01T05:14:41.714Z,0.65
2023-02-01T05:17:08.127Z,0.80
2023-02-01T05:19:34.572Z,1.00
2023-02-01T05:22:01.007Z,0.90
2023-02-01T05:24:28.104Z,0.98
2023-02-01T05:26:54.647Z,0.70
2023-02-01T05:29:21.167Z,0.77
2023-02-01T05:31:48.073Z,0.75
2023-02-01T05:34:14.833Z,0.70
2023-02-01T05:36:41.627Z,0.90
2023-02-01T05:39:08.030Z,0.95
2023-02-01T05:41:34.451Z,0.70
2023-02-01T05:44:02.092Z,1.05
2023-02-01T05:46:28.757Z,0.90
2023-02-01T05:48:55.160Z,0.85
2023-02-01T05:51:21.742Z,0.82
2023-02-01T05:53:48.300Z,0.65
2023-02-01T05:56:14.686Z,0.82
2023-02-01T05:58:42.832Z,0.77
2023-02-01T06:01:09.236Z,0.90
2023-02-01T06:03:35.807Z,0.80
2023-02-01T06:06:02.533Z,0.80
2023-02-01T06:08:29.068Z,0.88
2023-02-01T06:11:02.341Z,0.90
2023-02-01T06:13:29.214Z,0.85
2023-02-01T06:15:56.844Z,0.80
2023-02-01T06:18:23.731Z,1.00
2023-02-01T06:21:01.742Z,0.60
2023-02-01T06:23:28.818Z,0.70
2023-02-01T06:26:05.960Z,0.75
2023-02-01T06:28:33.056Z,0.80
2023-02-01T06:31:03.789Z,0.90
2023-02-01T06:33:30.303Z,0.90
2023-02-01T06:36:00.445Z,0.88
2023-02-01T06:38:27.305Z,0.63
2023-02-01T06:40:54.267Z,0.80
2023-02-01T06:43:20.764Z,0.82
2023-02-01T06:45:47.233Z,0.70
2023-02-01T06:48:13.673Z,1.08
2023-02-01T06:50:40.140Z,0.52
2023-02-01T06:53:06.614Z,1.15
2023-02-01T06:55:37.519Z,1.02
2023-02-01T06:58:05.801Z,1.38
2023-02-01T07:00:32.338Z,1.00
2023-02-01T07:02:59.786Z,1.08
2023-02-01T07:05:27.959Z,0.90
2023-02-01T07:07:54.487Z,1.05
2023-02-01T07:10:21.288Z,1.00
2023-02-01T07:12:47.908Z,1.00
2023-02-01T07:15:14.316Z,1.23
2023-02-01T07:17:40.763Z,1.05
2023-02-01T07:20:07.591Z,0.90
2023-02-01T07:22:34.035Z,0.70
2023-02-01T07:25:00.580Z,0.90
2023-02-01T07:27:27.119Z,0.98
2023-02-01T07:29:53.625Z,0.90
2023-02-01T07:32:20.129Z,0.85
2023-02-01T07:34:46.568Z,0.90
2023-02-01T07:37:13.127Z,1.05
2023-02-01T07:39:39.587Z,1.00
2023-02-01T07:42:06.735Z,1.30
2023-02-01T07:44:33.115Z,1.33
2023-02-01T07:47:02.281Z,1.30
2023-02-01T07:49:29.008Z,1.20
2023-02-01T07:51:56.060Z,1.30
2023-02-01T07:54:22.555Z,1.38
2023-02-01T07:56:50.178Z,1.33
2023-02-01T07:59:17.064Z,1.10
2023-02-01T08:01:43.747Z,1.42
2023-02-01T08:04:13.760Z,1.20
2023-02-01T08:06:40.554Z,1.30
2023-02-01T08:09:08.770Z,0.95
2023-02-01T08:11:37.622Z,1.35
2023-02-01T08:14:04.272Z,1.00
2023-02-01T08:16:30.816Z,1.55
2023-02-01T08:18:59.563Z,1.30
2023-02-01T08:21:29.666Z,0.85
2023-02-01T08:23:57.362Z,1.00
2023-02-01T08:26:25.326Z,1.02
2023-02-01T08:28:59.027Z,1.02
2023-02-01T08:31:29.308Z,1.10
2023-02-01T08:33:57.335Z,0.95
2023-02-01T08:36:26.463Z,1.30
2023-02-01T08:38:54.602Z,1.20
2023-02-01T08:41:22.688Z,1.48
2023-02-01T08:43:49.145Z,1.23
2023-02-01T08:46:18.827Z,1.52
2023-02-01T08:48:46.365Z,1.17
2023-02-01T08:51:13.749Z,1.10
2023-02-01T08:53:46.025Z,1.50
2023-02-01T08:56:13.190Z,1.17
2023-02-01T08:58:39.939Z,1.20
2023-02-01T09:01:07.345Z,1.50
2023-02-01T09:03:35.711Z,1.27
2023-02-01T09:06:04.134Z,1.27
2023-02-01T09:08:30.810Z,1.15
2023-02-01T09:11:03.196Z,1.25
2023-02-01T09:13:37.368Z,1.33
2023-02-01T09:16:04.332Z,1.30
2023-02-01T09:18:30.791Z,1.58
2023-02-01T09:20:57.176Z,1.10
2023-02-01T09:23:23.655Z,1.20
2023-02-01T09:25:55.156Z,1.40
2023-02-01T09:28:21.647Z,1.47
2023-02-01T09:30:48.256Z,1.40
2023-02-01T09:33:14.860Z,1.25
2023-02-01T09:35:41.268Z,1.27
2023-02-01T09:38:07.702Z,1.58
2023-02-01T09:40:35.324Z,1.27
2023-02-01T09:43:07.794Z,1.02
2023-02-01T09:48:03.385Z,1.30
2023-02-01T09:50:40.731Z,1.23
2023-02-01T09:53:19.398Z,1.05
2023-02-01T09:55:54.255Z,1.20
2023-02-01T09:58:20.711Z,1.38
2023-02-01T10:00:58.596Z,1.38
2023-02-01T10:03:27.804Z,0.93
2023-02-01T10:05:54.468Z,0.95
2023-02-01T10:08:39.942Z,0.95
2023-02-01T10:11:17.323Z,1.02
2023-02-01T10:13:57.981Z,1.13
2023-02-01T10:16:34.780Z,1.00
2023-02-01T10:19:21.460Z,1.30
2023-02-01T10:21:52.177Z,1.05
2023-02-01T10:24:24.581Z,0.88
2023-02-01T10:29:19.505Z,0.80
2023-02-01T10:31:46.330Z,1.08
2023-02-01T10:34:33.403Z,1.10
2023-02-01T10:37:08.967Z,1.20
2023-02-01T10:39:35.409Z,1.20
2023-02-01T10:42:01.851Z,0.98
2023-02-01T10:44:31.149Z,0.80
2023-02-01T10:46:57.808Z,1.20
2023-02-01T10:49:44.428Z,0.90
2023-02-01T10:52:19.188Z,0.85
2023-02-01T10:54:47.592Z,1.10
2023-02-01T10:57:21.954Z,1.00
2023-02-01T10:59:50.269Z,1.27
2023-02-01T11:02:30.191Z,0.93
2023-02-01T11:05:06.839Z,0.90
2023-02-01T11:07:33.652Z,1.05
2023-02-01T11:10:00.304Z,1.17
2023-02-01T11:12:34.234Z,0.75
2023-02-01T11:15:03.260Z,1.05
2023-02-01T11:17:34.070Z,1.05
2023-02-01T11:20:02.159Z,0.90
2023-02-01T11:22:30.478Z,0.90
2023-02-01T11:24:58.005Z,1.10
2023-02-01T11:27:27.646Z,1.00
2023-02-01T11:29:57.466Z,0.85
2023-02-01T11:32:24.626Z,1.00
2023-02-01T11:34:55.325Z,0.70
2023-02-01T11:37:27.007Z,0.90
2023-02-01T11:40:00.358Z,1.17
2023-02-01T11:42:28.081Z,0.88
2023-02-01T11:45:14.444Z,0.88
2023-02-01T11:47:44.094Z,0.75
2023-02-01T11:50:15.642Z,1.00
2023-02-01T11:52:45.147Z,1.07
2023-02-01T11:55:25.885Z,1.02
2023-02-01T11:57:55.026Z,0.88
2023-02-01T12:00:42.450Z,1.00
2023-02-01T12:03:31.722Z,1.20
2023-02-01T12:06:32.118Z,1.00
2023-02-01T12:09:13.527Z,0.93
2023-02-01T12:11:46.052Z,0.88
2023-02-01T12:14:24.812Z,1.00
2023-02-01T12:16:51.258Z,1.33
2023-02-01T12:19:43.333Z,0.88
2023-02-01T12:22:09.787Z,0.70
2023-02-01T12:24:51.491Z,1.00
2023-02-01T12:27:28.766Z,1.10
2023-02-01T12:30:11.607Z,1.10
2023-02-01T12:32:51.372Z,1.00
2023-02-01T12:35:37.952Z,0.93
2023-02-01T12:38:15.444Z,1.00
2023-02-01T12:40:41.833Z,0.90
2023-02-01T12:43:11.535Z,0.77
2023-02-01T12:45:43.456Z,1.00
2023-02-01T12:48:24.699Z,0.90
2023-02-01T12:50:53.979Z,0.95
2023-02-01T12:53:25.053Z,0.85
2023-02-01T12:55:54.236Z,0.70
2023-02-01T12:58:20.595Z,0.70
2023-02-01T13:00:51.804Z,0.98
2023-02-01T13:03:21.315Z,0.90
2023-02-01T13:06:03.865Z,1.02
2023-02-01T13:11:01.465Z,0.77
2023-02-01T13:13:31.036Z,0.88
2023-02-01T13:16:19.134Z,0.80
2023-02-01T13:18:47.503Z,1.13
2023-02-01T13:21:19.649Z,0.70
2023-02-01T13:23:47.942Z,0.73
2023-02-01T13:26:18.107Z,0.85
2023-02-01T13:28:52.958Z,0.90
2023-02-01T13:31:25.533Z,0.65
2023-02-01T13:34:10.702Z,0.80
2023-02-01T13:36:53.557Z,0.85
2023-02-01T13:39:39.150Z,0.95
2023-02-01T13:42:18.548Z,0.70
2023-02-01T13:44:47.527Z,0.77
2023-02-01T13:47:20.187Z,0.77
2023-02-01T13:49:48.898Z,0.88
2023-02-01T13:52:24.776Z,0.90
2023-02-01T13:55:02.851Z,0.85
2023-02-01T13:57:36.571Z,0.60
2023-02-01T14:00:31.130Z,0.60
2023-02-01T14:03:00.550Z,0.60
2023-02-01T14:05:27.065Z,0.70
2023-02-01T14:08:05.810Z,0.88
2023-02-01T14:10:51.716Z,0.75
2023-02-01T14:13:36.987Z,0.70
2023-02-01T14:16:03.608Z,0.65
2023-02-01T14:18:36.056Z,0.77
2023-02-01T14:21:22.057Z,0.47
2023-02-01T14:23:56.791Z,0.68
2023-02-01T14:26:43.608Z,0.63
2023-02-01T14:29:20.743Z,0.70
2023-02-01T14:32:07.176Z,0.52
2023-02-01T14:34:46.180Z,0.93
2023-02-01T14:37:18.745Z,0.80
2023-02-01T14:39:45.191Z,0.70
2023-02-01T14:42:17.724Z,0.75
2023-02-01T14:44:58.222Z,0.70
2023-02-01T14:47:25.950Z,0.83
2023-02-01T14:49:57.657Z,0.80
2023-02-01T14:52:30.682Z,0.80
2023-02-01T14:54:58.253Z,0.70
2023-02-01T14:57:26.416Z,0.85
2023-02-01T14:59:58.217Z,0.77
2023-02-01T15:02:26.807Z,0.80
2023-02-01T15:04:58.855Z,0.50
2023-02-01T15:07:26.762Z,0.68
2023-02-01T15:09:53.808Z,0.73
2023-02-01T15:12:27.829Z,0.65
2023-02-01T15:15:10.051Z,0.70
2023-02-01T15:17:36.674Z,0.55
2023-02-01T15:20:17.064Z,0.50
2023-02-01T15:23:00.244Z,0.60
2023-02-01T15:25:35.193Z,0.70
2023-02-01T15:28:01.704Z,0.60
2023-02-01T15:30:29.133Z,0.70
2023-02-01T15:33:07.872Z,0.60
2023-02-01T15:35:41.656Z,0.73
2023-02-01T15:38:26.210Z,0.70
2023-02-01T15:41:04.978Z,0.82
2023-02-01T15:43:33.478Z,1.00
2023-02-01T15:46:01.161Z,0.88
2023-02-01T15:48:31.220Z,0.60
2023-02-01T15:50:58.062Z,0.77
2023-02-01T15:53:25.390Z,0.80
2023-02-01T15:55:56.083Z,0.80
2023-02-01T15:58:23.730Z,0.80
2023-02-01T16:00:51.970Z,1.00
2023-02-01T16:03:26.812Z,0.80
2023-02-01T16:05:57.828Z,0.90
2023-02-01T16:08:26.131Z,1.13
2023-02-01T16:10:54.049Z,0.70
2023-02-01T16:13:21.400Z,0.98
2023-02-01T16:15:48.308Z,0.90
2023-02-01T16:18:17.827Z,0.93
2023-02-01T16:20:45.467Z,0.88
2023-02-01T16:23:11.969Z,1.00
2023-02-01T16:25:39.057Z,1.05
2023-02-01T16:28:09.266Z,0.90
2023-02-01T16:30:37.845Z,1.00
2023-02-01T16:33:05.907Z,1.20
2023-02-01T16:35:39.104Z,0.90
2023-02-01T16:38:14.025Z,0.85
2023-02-01T16:40:41.404Z,1.38
2023-02-01T16:43:15.734Z,1.10
2023-02-01T16:45:44.764Z,1.83
2023-02-01T16:48:17.448Z,1.70
2023-02-01T16:50:44.088Z,1.20
2023-02-01T16:53:13.816Z,1.50
2023-02-01T16:55:43.193Z,1.58
2023-02-01T16:58:09.600Z,1.35
2023-02-01T17:00:38.085Z,1.50
2023-02-01T17:03:05.669Z,1.35
2023-02-01T17:05:32.618Z,1.27
2023-02-01T17:08:05.840Z,2.15
2023-02-01T17:10:34.117Z,2.40
2023-02-01T17:13:01.092Z,2.17
2023-02-01T17:15:29.348Z,2.08
2023-02-01T17:17:57.795Z,2.78
2023-02-01T17:20:25.927Z,2.70
2023-02-01T17:22:53.102Z,2.80
2023-02-01T17:25:22.465Z,2.65
2023-02-01T17:27:49.505Z,3.50
2023-02-01T17:30:16.430Z,3.33
2023-02-01T17:32:43.325Z,3.25
2023-02-01T17:35:23.868Z,3.60
2023-02-01T17:37:50.668Z,3.63
2023-02-01T17:40:17.215Z,3.22
2023-02-01T17:42:43.679Z,3.50
2023-02-01T17:45:28.056Z,3.80
2023-02-01T17:47:54.488Z,3.65
2023-02-01T17:50:20.856Z,3.67
2023-02-01T17:52:47.339Z,3.33
2023-02-01T17:55:16.862Z,3.60
2023-02-01T17:57:43.324Z,4.10
2023-02-01T18:00:10.302Z,4.40
2023-02-01T18:02:36.723Z,3.95
2023-02-01T18:05:12.073Z,3.55
2023-02-01T18:07:38.490Z,4.00
2023-02-01T18:10:05.038Z,3.83
2023-02-01T18:12:33.249Z,4.53
2023-02-01T18:14:59.696Z,4.25
2023-02-01T18:17:27.207Z,3.92
2023-02-01T18:19:54.673Z,4.07
2023-02-01T18:22:23.210Z,3.95
2023-02-01T18:24:49.607Z,3.90
2023-02-01T18:27:15.991Z,4.32
2023-02-01T18:29:44.400Z,3.20
2023-02-01T18:32:10.987Z,3.80
2023-02-01T18:34:37.423Z,3.08
2023-02-01T18:37:03.952Z,3.70
2023-02-01T18:39:30.384Z,3.38
2023-02-01T18:41:56.860Z,3.58
2023-02-01T18:44:26.639Z,3.35
2023-02-01T18:46:53.154Z,3.30
2023-02-01T18:49:19.853Z,3.33
2023-02-01T18:51:47.100Z,3.35
2023-02-01T18:54:13.531Z,3.28
2023-02-01T18:56:40.196Z,3.15
2023-02-01T18:59:06.717Z,2.88
2023-02-01T19:01:33.245Z,2.95
2023-02-01T19:04:04.113Z,2.85
2023-02-01T19:06:36.783Z,2.97
2023-02-01T19:09:03.196Z,2.85
2023-02-01T19:11:31.798Z,3.25
2023-02-01T19:13:58.269Z,3.00
2023-02-01T19:16:24.700Z,2.60
2023-02-01T19:18:52.177Z,3.00
2023-02-01T19:21:19.099Z,2.33
2023-02-01T19:23:51.313Z,2.75
2023-02-01T19:26:18.473Z,3.13
2023-02-01T19:28:47.758Z,3.10
2023-02-01T19:31:19.554Z,2.38
2023-02-01T19:33:46.286Z,2.72
2023-02-01T19:36:12.720Z,2.92
2023-02-01T19:38:40.308Z,2.60
2023-02-01T19:41:06.808Z,2.60
2023-02-01T19:43:33.554Z,2.58
2023-02-01T19:46:04.046Z,2.30
2023-02-01T19:48:31.516Z,2.80
2023-02-01T19:50:59.117Z,2.38
2023-02-01T19:53:29.557Z,2.47
2023-02-01T19:55:59.504Z,2.53
2023-02-01T19:58:29.135Z,2.58
2023-02-01T20:00:57.273Z,2.63
2023-02-01T20:03:24.198Z,2.25
2023-02-01T20:05:52.161Z,2.20
2023-02-01T20:08:18.637Z,2.67
2023-02-01T20:10:45.131Z,2.20
2023-02-01T20:13:12.009Z,2.10
2023-02-01T20:15:38.466Z,1.63
2023-02-01T20:18:05.843Z,2.20
2023-02-01T20:20:35.080Z,2.08
2023-02-01T20:23:04.426Z,1.98
2023-02-01T20:25:31.751Z,2.15
2023-02-01T20:27:58.135Z,1.55
2023-02-01T20:30:24.664Z,1.92
2023-02-01T20:32:51.915Z,1.75
2023-02-01T20:35:18.944Z,1.45
2023-02-01T20:37:46.536Z,1.70
2023-02-01T20:40:13.267Z,1.50
2023-02-01T20:42:43.484Z,1.52
2023-02-01T20:45:10.152Z,1.67
2023-02-01T20:47:39.400Z,1.30
2023-02-01T20:50:06.187Z,1.52
2023-02-01T20:52:32.729Z,1.20
2023-02-01T20:54:59.176Z,1.23
2023-02-01T20:57:28.251Z,1.35
2023-02-01T20:59:54.954Z,1.40
2023-02-01T21:02:21.368Z,1.20
2023-02-01T21:04:47.835Z,1.10
2023-02-01T21:07:14.300Z,1.17
2023-02-01T21:09:41.960Z,1.27
2023-02-01T21:12:11.817Z,1.10
2023-02-01T21:14:38.291Z,1.00
2023-02-01T21:17:04.744Z,0.75
2023-02-01T21:19:42.948Z,1.17
2023-02-01T21:22:10.569Z,0.90
2023-02-01T21:24:37.041Z,1.05
2023-02-01T21:27:03.620Z,1.10
2023-02-01T21:29:30.045Z,1.10
2023-02-01T21:31:56.569Z,0.90
2023-02-01T21:34:25.559Z,0.80
2023-02-01T21:36:54.262Z,0.98
2023-02-01T21:39:20.671Z,1.00
2023-02-01T21:42:05.862Z,0.90
2023-02-01T21:44:32.330Z,0.68
2023-02-01T21:46:58.786Z,0.82
2023-02-01T21:49:28.725Z,0.90
2023-02-01T21:51:55.558Z,0.80
2023-02-01T21:54:21.998Z,0.80
2023-02-01T21:56:48.750Z,0.65
2023-02-01T21:59:15.248Z,0.80
2023-02-01T22:01:41.942Z,0.82
2023-02-01T22:04:08.943Z,0.90
2023-02-01T22:06:38.885Z,0.70
2023-02-01T22:09:07.864Z,0.50
2023-02-01T22:11:34.346Z,0.50
2023-02-01T22:14:00.908Z,0.75
2023-02-01T22:16:27.371Z,0.80
2023-02-01T22:18:54.211Z,0.63
2023-02-01T22:21:21.292Z,0.40
2023-02-01T22:23:51.534Z,0.60
2023-02-01T22:26:18.005Z,0.68
2023-02-01T22:28:44.543Z,0.50
2023-02-01T22:31:11.010Z,0.50
2023-02-01T22:33:37.774Z,0.70
2023-02-01T22:36:07.704Z,0.52
2023-02-01T22:38:36.227Z,0.60
2023-02-01T22:41:04.036Z,0.63
2023-02-01T22:43:30.757Z,0.55
2023-02-01T22:46:04.845Z,0.45
2023-02-01T22:48:34.112Z,0.52
2023-02-01T22:51:01.053Z,0.57
2023-02-01T22:53:28.390Z,0.50
2023-02-01T22:55:59.547Z,0.40
2023-02-01T22:58:26.027Z,0.50
2023-02-01T23:00:52.402Z,0.40
2023-02-01T23:03:18.959Z,0.50
2023-02-01T23:05:45.379Z,0.50
2023-02-01T23:08:11.831Z,0.50
2023-02-01T23:10:41.242Z,0.40
2023-02-01T23:13:07.678Z,0.70
2023-02-01T23:15:34.163Z,0.88
2023-02-01T23:18:00.583Z,0.60
2023-02-01T23:20:28.147Z,0.50
2023-02-01T23:22:54.559Z,0.50
2023-02-01T23:25:21.115Z,0.60
2023-02-01T23:27:48.790Z,0.40
2023-02-01T23:30:16.863Z,0.50
2023-02-01T23:32:43.510Z,0.43
2023-02-01T23:35:09.990Z,0.47
2023-02-01T23:37:36.370Z,0.50
2023-02-01T23:40:03.072Z,0.50
2023-02-01T23:42:29.700Z,0.40
2023-02-01T23:44:56.136Z,0.30
2023-02-01T23:47:22.573Z,0.45
2023-02-01T23:49:50.098Z,0.45
2023-02-01T23:52:16.650Z,0.52
2023-02-01T23:54:43.079Z,0.40
2023-02-01T23:57:09.533Z,0.50
2023-02-01T23:59:36.090Z,0.45
